Time;durP1;ratioP1;P1;durP2;ratioP2;P2;SDS_P1;SDS_P2;PMS_P1;PMS_P2;Temp;Humidity;BMP_temperature;BMP_pressure;BME280_temperature;BME280_humidity;BME280_pressure;Samples;Min_cycle;Max_cycle;Signal;HPM_P1;HPM_P2
2021/01/21 00:01:05;;;;;;;3.10;1.95;;;;;;;12.30;57.01;98565.50;5011647;28;20033;-82
2021/01/21 00:03:33;;;;;;;2.75;1.70;;;;;;;12.46;56.39;98564.50;5011202;28;20485;-81
2021/01/21 00:06:00;;;;;;;5.70;2.20;;;;;;;12.50;55.67;98554.53;5013063;28;20029;-82
2021/01/21 00:08:28;;;;;;;3.60;1.83;;;;;;;12.58;55.75;98563.69;5013150;28;20026;-81
2021/01/21 00:10:55;;;;;;;4.57;1.88;;;;;;;12.64;56.17;98540.38;5013213;28;20087;-81
2021/01/21 00:13:21;;;;;;;4.53;1.60;;;;;;;12.67;55.96;98543.66;5009165;28;20172;-82
2021/01/21 00:15:48;;;;;;;5.07;1.83;;;;;;;12.59;55.94;98532.69;5013056;28;20022;-82
2021/01/21 00:18:14;;;;;;;4.13;2.03;;;;;;;12.57;55.36;98514.22;5012906;28;20469;-81
2021/01/21 00:20:41;;;;;;;3.83;1.70;;;;;;;12.59;56.30;98522.91;5012404;28;20037;-81
2021/01/21 00:23:08;;;;;;;4.68;2.25;;;;;;;12.59;56.00;98512.28;5012650;28;20056;-81
2021/01/21 00:25:34;;;;;;;4.70;1.60;;;;;;;12.55;55.53;98502.81;5012237;28;20159;-80
2021/01/21 00:28:01;;;;;;;3.30;1.40;;;;;;;12.59;55.69;98490.19;5012755;28;20026;-82
2021/01/21 00:30:27;;;;;;;2.20;1.63;;;;;;;12.44;55.93;98466.34;5013122;28;20156;-82
2021/01/21 00:32:54;;;;;;;3.50;2.10;;;;;;;12.68;55.62;98467.47;5012286;28;20032;-81
2021/01/21 00:35:21;;;;;;;6.40;1.92;;;;;;;12.69;56.05;98458.56;5012364;28;20024;-81
2021/01/21 00:37:47;;;;;;;5.30;1.95;;;;;;;12.77;55.18;98453.56;5012429;28;20022;-81
2021/01/21 00:40:14;;;;;;;4.57;1.88;;;;;;;12.81;56.38;98460.38;5012372;28;20034;-81
2021/01/21 00:42:41;;;;;;;3.13;1.85;;;;;;;12.82;56.73;98462.06;5012370;28;20026;-82
2021/01/21 00:45:08;;;;;;;5.35;1.95;;;;;;;12.57;59.77;98436.31;5009739;28;20029;-81
2021/01/21 00:47:35;;;;;;;4.13;1.85;;;;;;;12.43;60.31;98453.16;5012959;28;20026;-82
2021/01/21 00:50:02;;;;;;;3.45;1.77;;;;;;;11.95;62.63;98433.19;5013087;28;20026;-82
2021/01/21 00:52:29;;;;;;;6.00;2.00;;;;;;;11.95;63.10;98443.81;5012260;28;20053;-82
2021/01/21 00:54:55;;;;;;;3.13;1.70;;;;;;;11.96;63.78;98419.00;5010815;28;20388;-81
2021/01/21 00:57:22;;;;;;;3.53;2.03;;;;;;;11.83;64.53;98407.44;5010473;28;20022;-81
2021/01/21 00:59:48;;;;;;;3.50;1.85;;;;;;;11.92;63.97;98398.03;5010711;28;20021;-82
2021/01/21 01:02:15;;;;;;;5.28;2.17;;;;;;;11.62;65.84;98386.63;5007725;28;20034;-82
2021/01/21 01:04:41;;;;;;;3.28;1.95;;;;;;;11.69;65.52;98383.59;5011869;28;20042;-82
2021/01/21 01:07:08;;;;;;;4.38;1.83;;;;;;;11.56;65.50;98392.34;5011813;28;20060;-81
2021/01/21 01:09:35;;;;;;;4.53;1.80;;;;;;;11.55;65.60;98364.13;5012191;28;20028;-81
2021/01/21 01:12:01;;;;;;;4.45;1.98;;;;;;;11.73;65.60;98363.91;5012332;28;20018;-81
2021/01/21 01:14:31;;;;;;;2.97;1.80;;;;;;;11.56;65.72;98334.00;5012176;28;20044;-81
2021/01/21 01:16:57;;;;;;;4.88;1.88;;;;;;;11.58;65.26;98345.38;5009274;28;20026;-84
2021/01/21 01:19:24;;;;;;;4.22;2.22;;;;;;;11.65;65.16;98330.75;5012295;28;20087;-82
2021/01/21 01:21:50;;;;;;;3.60;1.75;;;;;;;11.77;64.59;98330.91;5012038;28;20026;-81
2021/01/21 01:24:17;;;;;;;5.55;1.77;;;;;;;11.74;64.62;98336.41;5011860;28;20030;-82
2021/01/21 01:26:45;;;;;;;4.40;1.90;;;;;;;11.82;63.57;98328.81;5011888;28;20034;-79
2021/01/21 01:29:13;;;;;;;5.07;1.67;;;;;;;11.93;63.14;98328.94;5011672;28;20520;-81
2021/01/21 01:31:39;;;;;;;3.85;2.25;;;;;;;11.84;62.86;98329.56;5012106;28;20029;-81
2021/01/21 01:34:06;;;;;;;2.55;1.23;;;;;;;11.79;63.11;98321.06;5010054;28;20406;-82
2021/01/21 01:36:32;;;;;;;4.88;1.55;;;;;;;11.86;62.83;98334.75;5012539;28;20034;-82
2021/01/21 01:38:59;;;;;;;5.15;1.70;;;;;;;12.08;63.02;98311.19;5012817;28;20064;-79
2021/01/21 01:41:29;;;;;;;6.43;2.08;;;;;;;11.96;63.15;98296.94;5012630;28;20547;-80
2021/01/21 01:43:56;;;;;;;2.65;1.48;;;;;;;12.02;63.67;98308.09;5012331;28;20030;-81
2021/01/21 01:46:34;;;;;;;3.95;1.80;;;;;;;11.87;64.39;98302.81;5016531;28;20025;-79
2021/01/21 01:49:09;;;;;;;4.80;1.27;;;;;;;11.92;63.82;98290.09;5008357;28;20379;-80
2021/01/21 01:51:45;;;;;;;5.43;1.80;;;;;;;11.83;63.33;98290.72;5017276;28;20053;-81
2021/01/21 01:54:12;;;;;;;3.03;1.55;;;;;;;11.93;63.18;98270.56;5016863;28;20034;-81
2021/01/21 01:56:41;;;;;;;5.60;1.67;;;;;;;11.95;62.78;98265.16;5013848;28;20046;-81
2021/01/21 01:59:08;;;;;;;3.33;1.58;;;;;;;12.16;62.27;98273.50;5016191;28;20081;-80
2021/01/21 02:01:35;;;;;;;5.55;1.40;;;;;;;11.93;62.42;98267.91;5016040;28;20416;-81
2021/01/21 02:04:02;;;;;;;2.85;1.45;;;;;;;12.20;60.85;98267.06;5016443;28;20030;-80
2021/01/21 02:06:28;;;;;;;5.75;1.27;;;;;;;12.34;60.88;98259.97;5016341;28;20018;-80
2021/01/21 02:08:57;;;;;;;3.67;1.52;;;;;;;12.36;61.22;98250.06;5016060;28;20080;-81
2021/01/21 02:14:32;;;;;;;2.50;1.58;;;;;;;12.34;59.66;98266.09;5079153;27;20427;-79
2021/01/21 02:17:07;;;;;;;3.88;1.38;;;;;;;12.59;60.68;98248.47;5063589;28;20029;-81
2021/01/21 02:36:33;;;;;;;2.60;1.17;;;;;;;12.34;61.57;98209.50;5080786;27;20816;-80
2021/01/21 02:39:04;;;;;;;1.77;1.08;;;;;;;12.54;60.71;98195.66;5065128;28;20379;-80
2021/01/21 02:41:33;;;;;;;2.75;1.23;;;;;;;12.39;61.68;98202.06;5065653;28;20035;-80
2021/01/21 02:43:59;;;;;;;1.65;1.20;;;;;;;12.52;60.91;98189.59;5064782;28;20740;-81
2021/01/21 02:46:27;;;;;;;4.20;1.55;;;;;;;12.55;61.57;98178.78;5067148;28;20025;-81
2021/01/21 02:48:56;;;;;;;3.85;1.55;;;;;;;12.43;62.12;98184.94;5067383;28;20029;-80
2021/01/21 02:54:24;;;;;;;2.45;1.25;;;;;;;12.41;62.11;98162.97;4983010;27;3004751;-79
2021/01/21 02:56:55;;;;;;;2.80;1.38;;;;;;;12.50;62.75;98177.38;5066170;28;20087;-78
2021/01/21 02:59:27;;;;;;;2.95;1.20;;;;;;;12.26;63.49;98184.34;5053987;28;20034;-78
2021/01/21 03:01:55;;;;;;;1.90;1.30;;;;;;;12.38;63.77;98201.19;5058771;28;20024;-80
2021/01/21 03:04:24;;;;;;;3.33;1.60;;;;;;;12.32;64.77;98185.69;5053884;28;20559;-79
2021/01/21 03:06:55;;;;;;;6.47;2.28;;;;;;;12.20;66.03;98179.44;5059190;28;20029;-80
2021/01/21 03:09:22;;;;;;;4.63;1.40;;;;;;;12.04;66.93;98166.38;5056374;28;20735;-81
2021/01/21 03:11:48;;;;;;;3.67;1.80;;;;;;;11.98;67.49;98162.34;5037966;28;20029;-81
2021/01/21 03:14:15;;;;;;;1.55;1.20;;;;;;;11.90;67.99;98175.28;5058245;28;20036;-80
2021/01/21 03:16:42;;;;;;;2.75;1.30;;;;;;;11.73;69.18;98151.69;5053744;28;20020;-80
2021/01/21 03:19:08;;;;;;;3.65;1.80;;;;;;;11.69;69.09;98142.22;5056721;28;20028;-80
2021/01/21 03:21:35;;;;;;;3.28;1.50;;;;;;;11.68;69.54;98153.81;5039939;28;20037;-80
2021/01/21 03:24:02;;;;;;;1.25;1.15;;;;;;;11.50;70.05;98252.19;5052812;28;20502;-80
2021/01/21 03:26:28;;;;;;;5.50;1.33;;;;;;;10.82;68.92;98407.50;5042815;28;20348;-82
2021/01/21 03:28:54;;;;;;;2.78;0.75;;;;;;;9.78;66.86;98428.44;5055061;28;20496;-83
2021/01/21 03:31:21;;;;;;;4.88;1.13;;;;;;;9.51;66.74;98399.94;5061203;28;20043;-82
2021/01/21 03:33:47;;;;;;;5.13;1.10;;;;;;;9.14;67.68;98391.38;5050241;28;20034;-81
2021/01/21 03:36:14;;;;;;;8.38;1.33;;;;;;;8.83;68.32;98387.69;5037446;28;20033;-82
2021/01/21 03:38:40;;;;;;;8.60;1.52;;;;;;;8.54;68.92;98387.44;5054906;28;20056;-82
2021/01/21 03:41:06;;;;;;;10.48;1.63;;;;;;;8.40;68.95;98385.47;5057721;28;20031;-81
2021/01/21 03:43:33;;;;;;;7.90;1.45;;;;;;;8.31;69.52;98402.63;5057307;28;20025;-82
2021/01/21 03:45:59;;;;;;;6.35;1.33;;;;;;;8.34;68.81;98431.47;5057785;28;20021;-83
2021/01/21 03:48:26;;;;;;;12.90;1.55;;;;;;;8.45;69.05;98403.69;5049649;28;20029;-82
2021/01/21 03:50:52;;;;;;;9.07;1.45;;;;;;;8.38;68.47;98422.47;5056162;28;20037;-82
2021/01/21 03:53:18;;;;;;;8.85;1.60;;;;;;;8.35;69.15;98422.63;5054208;28;20038;-82
2021/01/21 03:55:45;;;;;;;14.32;2.22;;;;;;;8.48;68.73;98422.88;5056431;28;20028;-82
2021/01/21 03:58:11;;;;;;;10.27;1.52;;;;;;;8.32;68.68;98428.03;5058257;28;20468;-82
2021/01/21 04:00:38;;;;;;;7.85;1.63;;;;;;;8.37;66.41;98431.34;5056375;28;20546;-82
2021/01/21 04:03:04;;;;;;;10.88;1.20;;;;;;;8.41;66.54;98440.78;5053747;28;20041;-82
2021/01/21 04:05:30;;;;;;;15.82;2.38;;;;;;;8.38;66.58;98456.75;5043224;28;20025;-82
2021/01/21 04:07:57;;;;;;;12.88;1.92;;;;;;;8.58;66.94;98447.91;5044576;28;20032;-82
2021/01/21 04:10:23;;;;;;;9.10;1.95;;;;;;;8.46;66.69;98472.28;5044587;28;20083;-82
2021/01/21 04:12:49;;;;;;;11.70;1.98;;;;;;;8.50;65.61;98480.88;5043265;28;20510;-82
2021/01/21 04:15:16;;;;;;;12.05;2.58;;;;;;;8.51;65.78;98519.53;5043664;28;20380;-83
2021/01/21 04:17:42;;;;;;;20.73;2.75;;;;;;;8.32;65.42;98532.72;5046295;28;20044;-82
2021/01/21 04:20:09;;;;;;;16.42;2.95;;;;;;;8.54;65.49;98501.75;5043696;28;20029;-82
2021/01/21 04:22:35;;;;;;;12.00;2.20;;;;;;;8.51;65.95;98482.56;5044237;28;20484;-82
2021/01/21 04:25:02;;;;;;;11.60;2.10;;;;;;;8.66;64.27;98525.84;5043386;28;20190;-81
2021/01/21 04:27:28;;;;;;;12.85;1.90;;;;;;;8.71;65.23;98522.06;5043918;28;20353;-82
2021/01/21 04:29:55;;;;;;;21.15;3.25;;;;;;;8.70;64.96;98533.53;5043352;28;20025;-82
2021/01/21 04:32:21;;;;;;;14.77;2.45;;;;;;;8.66;64.31;98528.47;5042782;28;20047;-82
2021/01/21 04:34:47;;;;;;;24.75;2.95;;;;;;;8.95;63.98;98519.13;5042805;28;20411;-81
2021/01/21 04:37:14;;;;;;;16.48;3.63;;;;;;;8.87;64.68;98526.56;5044423;28;20025;-81
2021/01/21 04:39:40;;;;;;;20.23;3.25;;;;;;;8.84;64.18;98513.53;5045155;28;20029;-82
2021/01/21 04:42:07;;;;;;;16.98;2.50;;;;;;;8.85;64.39;98533.72;5043517;28;20476;-82
2021/01/21 04:44:33;;;;;;;16.23;3.03;;;;;;;8.79;63.87;98545.44;5045378;28;20112;-82
2021/01/21 04:47:00;;;;;;;11.10;2.60;;;;;;;8.88;63.47;98565.25;5043255;28;20109;-82
2021/01/21 04:49:30;;;;;;;18.13;4.38;;;;;;;8.77;63.20;98600.09;5042981;28;20049;-82
2021/01/21 04:52:01;;;;;;;33.47;4.43;;;;;;;8.78;62.80;98611.53;5045273;28;20388;-82
2021/01/21 04:54:34;;;;;;;20.30;3.35;;;;;;;8.93;62.82;98655.66;5043026;28;20021;-82
2021/01/21 04:57:03;;;;;;;25.17;3.00;;;;;;;9.02;62.42;98615.59;5021949;28;20044;-82
2021/01/21 04:59:36;;;;;;;14.80;2.53;;;;;;;8.87;61.92;98624.25;5036519;28;20453;-81
2021/01/21 05:02:04;;;;;;;12.23;2.97;;;;;;;8.83;61.46;98641.19;5044631;28;20044;-82
2021/01/21 05:04:31;;;;;;;19.33;3.17;;;;;;;8.65;60.56;98622.66;5044745;28;20017;-82
2021/01/21 05:06:59;;;;;;;10.80;2.25;;;;;;;8.46;60.50;98642.91;5039208;28;20057;-82
2021/01/21 05:09:26;;;;;;;19.42;2.40;;;;;;;8.81;60.28;98646.56;5044174;28;20024;-82
2021/01/21 05:11:54;;;;;;;15.52;3.60;;;;;;;8.66;60.86;98647.28;5041227;28;20043;-81
2021/01/21 05:14:20;;;;;;;21.40;3.08;;;;;;;8.79;60.77;98651.03;5040823;28;20030;-82
2021/01/21 05:16:47;;;;;;;16.40;3.30;;;;;;;8.42;61.55;98680.00;5041776;28;20083;-82
2021/01/21 05:19:14;;;;;;;15.43;2.30;;;;;;;8.83;60.41;98688.72;5042282;28;20130;-82
2021/01/21 05:21:42;;;;;;;13.57;2.22;;;;;;;8.41;61.45;98691.47;5044253;28;20028;-83
2021/01/21 05:24:11;;;;;;;18.67;3.03;;;;;;;8.59;60.41;98707.44;5042683;28;20033;-83
2021/01/21 05:26:43;;;;;;;17.20;2.15;;;;;;;8.33;60.27;98709.44;5044412;28;20026;-84
2021/01/21 05:29:13;;;;;;;13.73;1.75;;;;;;;8.39;60.61;98705.69;5039398;28;20079;-82
2021/01/21 05:31:40;;;;;;;12.52;2.60;;;;;;;8.50;60.67;98710.47;5043740;28;20029;-82
2021/01/21 05:34:08;;;;;;;7.63;1.98;;;;;;;8.38;60.51;98715.34;5032127;28;20029;-82
2021/01/21 05:36:44;;;;;;;11.68;2.20;;;;;;;8.53;60.34;98745.50;5044260;28;20488;-82
2021/01/21 05:39:11;;;;;;;15.75;2.67;;;;;;;8.39;61.11;98737.34;5039000;28;20366;-82
2021/01/21 05:41:38;;;;;;;12.90;1.90;;;;;;;8.65;60.73;98744.09;5043560;28;20021;-82
2021/01/21 05:44:06;;;;;;;11.30;2.17;;;;;;;8.58;59.45;98753.22;5041248;28;20021;-84
2021/01/21 05:46:33;;;;;;;11.75;2.17;;;;;;;8.39;58.21;98779.56;5043107;23;20038;-78
2021/01/21 05:49:01;;;;;;;23.20;3.08;;;;;;;8.33;58.89;98779.81;5011561;28;20455;-77
2021/01/21 05:51:29;;;;;;;10.98;1.73;;;;;;;8.58;58.41;98774.34;5013337;28;20105;-78
2021/01/21 05:53:56;;;;;;;8.00;2.17;;;;;;;8.42;59.08;98779.41;5012570;28;20037;-78
2021/01/21 05:56:24;;;;;;;10.88;2.42;;;;;;;8.35;58.89;98805.22;5012609;28;20026;-79
2021/01/21 05:58:52;;;;;;;9.23;1.58;;;;;;;8.08;58.15;98805.47;5012251;28;20029;-79
2021/01/21 06:01:21;;;;;;;8.70;1.35;;;;;;;8.13;56.95;98815.00;5012974;28;20030;-79
2021/01/21 06:03:49;;;;;;;12.13;1.58;;;;;;;8.23;57.10;98811.03;5013162;28;20030;-79
2021/01/21 06:06:15;;;;;;;6.95;1.60;;;;;;;8.37;56.59;98824.50;5011274;28;20037;-79
2021/01/21 06:08:43;;;;;;;8.00;1.40;;;;;;;8.03;58.28;98835.63;5012297;28;20072;-79
2021/01/21 06:11:11;;;;;;;8.88;1.45;;;;;;;8.28;57.40;98829.31;5011386;28;20595;-80
2021/01/21 06:13:39;;;;;;;9.82;1.58;;;;;;;8.08;58.70;98844.19;5013542;28;20030;-77
2021/01/21 06:16:07;;;;;;;8.95;1.65;;;;;;;8.05;58.48;98845.19;5006022;28;20584;-78
2021/01/21 06:18:34;;;;;;;11.10;1.52;;;;;;;8.07;58.84;98843.34;5008854;28;20060;-78
2021/01/21 06:21:01;;;;;;;14.73;4.03;;;;;;;8.08;59.69;98855.59;5005277;28;20473;-78
2021/01/21 06:23:30;;;;;;;11.50;2.33;;;;;;;8.22;59.05;98855.03;5013743;28;20130;-78
2021/01/21 06:25:58;;;;;;;9.93;1.80;;;;;;;8.16;59.18;98872.88;5013817;28;20038;-78
2021/01/21 06:28:27;;;;;;;5.68;1.48;;;;;;;8.16;59.50;98870.25;5012735;28;20034;-78
2021/01/21 06:30:57;;;;;;;9.27;1.90;;;;;;;8.13;58.84;98883.56;5010928;28;20072;-77
2021/01/21 06:33:26;;;;;;;12.07;2.17;;;;;;;8.04;59.02;98901.47;5013521;28;20026;-79
2021/01/21 06:36:02;;;;;;;12.70;1.63;;;;;;;8.19;59.05;98893.88;5010370;28;20034;-79
2021/01/21 06:38:37;;;;;;;6.32;1.58;;;;;;;7.93;59.14;98914.25;5013181;28;20029;-78
2021/01/21 06:41:07;;;;;;;5.55;1.80;;;;;;;8.09;58.96;98910.06;5012929;28;20033;-79
2021/01/21 06:43:37;;;;;;;6.75;1.67;;;;;;;7.99;59.61;98921.03;5013825;28;20025;-79
2021/01/21 06:46:07;;;;;;;14.27;2.65;;;;;;;7.94;59.23;98932.63;5013106;28;20473;-79
2021/01/21 06:48:33;;;;;;;7.80;1.50;;;;;;;7.80;59.41;98928.84;5013754;28;20421;-79
2021/01/21 06:51:08;;;;;;;11.45;1.35;;;;;;;7.81;59.34;98927.91;4999902;28;20041;-79
2021/01/21 06:53:36;;;;;;;8.90;1.48;;;;;;;7.76;59.29;98938.63;5013730;28;20030;-79
2021/01/21 06:56:03;;;;;;;6.18;1.70;;;;;;;7.73;59.04;98939.63;5013640;28;20026;-80
2021/01/21 06:58:49;;;;;;;15.00;3.10;;;;;;;7.63;59.39;98948.81;5013674;28;20030;-80
2021/01/21 07:09:37;;;;;;;13.13;1.95;;;;;;;7.39;59.48;98961.13;5110357;27;20378;-79
2021/01/21 07:12:12;;;;;;;14.88;2.30;;;;;;;7.36;59.81;98971.78;5110803;28;20038;-80
2021/01/21 07:14:42;;;;;;;24.42;3.40;;;;;;;7.55;58.96;98987.75;5105179;28;20115;-79
2021/01/21 07:17:10;;;;;;;9.20;1.50;;;;;;;7.29;59.71;98986.97;5102396;28;20020;-79
2021/01/21 07:19:45;;;;;;;5.80;1.67;;;;;;;7.41;59.25;98989.16;5099535;28;20024;-82
2021/01/21 07:22:16;;;;;;;11.38;1.92;;;;;;;7.47;58.88;98989.84;5099875;28;20025;-79
2021/01/21 07:24:49;;;;;;;8.88;1.83;;;;;;;7.70;58.74;98992.47;5100843;28;20021;-80
2021/01/21 07:27:19;;;;;;;9.05;1.85;;;;;;;7.50;59.17;99000.25;5101857;28;20028;-79
2021/01/21 07:29:45;;;;;;;16.40;2.25;;;;;;;7.45;58.81;98998.66;5101781;28;20107;-86
2021/01/21 07:32:11;;;;;;;9.68;1.77;;;;;;;7.28;59.28;99001.91;5120430;28;20142;-79
2021/01/21 07:34:40;;;;;;;8.50;2.05;;;;;;;7.21;59.11;99015.34;5114905;27;20038;-79
2021/01/21 07:37:30;;;;;;;8.18;1.85;;;;;;;7.23;59.22;99013.53;5106747;27;20027;-79
2021/01/21 07:48:20;;;;;;;8.10;1.73;;;;;;;7.60;58.61;99017.44;5069867;28;20418;-79
2021/01/21 07:50:47;;;;;;;7.20;1.75;;;;;;;7.78;58.07;99027.28;5050801;28;20033;-79
2021/01/21 07:53:21;;;;;;;9.55;2.05;;;;;;;7.77;58.96;99024.72;5037841;28;20040;-79
2021/01/21 07:55:49;;;;;;;9.60;2.40;;;;;;;7.81;58.59;99026.31;5046856;28;20038;-80
2021/01/21 07:58:27;;;;;;;12.15;2.15;;;;;;;7.77;59.65;99032.63;5048381;28;20065;-80
2021/01/21 08:00:56;;;;;;;13.38;2.20;;;;;;;7.89;59.33;99024.25;5045828;28;20041;-80
2021/01/21 08:03:40;;;;;;;9.13;2.33;;;;;;;7.87;59.50;99031.34;5050513;28;20057;-80
2021/01/21 08:09:10;;;;;;;10.65;2.22;;;;;;;7.75;61.32;99030.06;5024769;27;1452980;-88
2021/01/21 08:11:37;;;;;;;16.58;3.15;;;;;;;7.57;61.63;99038.66;5038918;28;20468;-79
2021/01/21 08:14:12;;;;;;;14.75;3.28;;;;;;;7.68;61.58;99036.47;5050449;28;20427;-80
2021/01/21 08:16:43;;;;;;;10.60;2.70;;;;;;;7.40;62.31;99040.13;5041504;28;20037;-81
2021/01/21 08:19:11;;;;;;;14.70;3.70;;;;;;;7.59;61.86;99032.41;5035980;28;20164;-81
2021/01/21 08:21:38;;;;;;;13.50;3.15;;;;;;;7.66;61.43;99038.28;5039247;28;20277;-80
2021/01/21 08:24:08;;;;;;;14.52;2.53;;;;;;;7.63;61.06;99033.16;5037762;28;20025;-81
2021/01/21 08:26:35;;;;;;;12.43;2.08;;;;;;;7.53;61.46;99042.31;5037868;28;20029;-80
2021/01/21 08:29:03;;;;;;;7.68;1.58;;;;;;;7.58;61.00;99040.38;5038307;28;20370;-80
2021/01/21 08:31:35;;;;;;;5.93;2.15;;;;;;;7.73;60.91;99037.16;5017697;28;20084;-80
2021/01/21 08:34:04;;;;;;;9.25;1.80;;;;;;;7.60;61.21;99041.16;5022105;28;20164;-79
2021/01/21 08:36:31;;;;;;;10.57;1.80;;;;;;;7.66;60.90;99043.56;5029956;28;20441;-80
2021/01/21 08:38:58;;;;;;;6.45;2.20;;;;;;;7.84;60.46;99047.31;5029692;28;20053;-81
2021/01/21 08:41:25;;;;;;;8.02;1.77;;;;;;;7.84;60.69;99063.13;5030243;28;20069;-79
2021/01/21 08:43:58;;;;;;;15.52;2.03;;;;;;;7.82;60.99;99048.28;5028025;28;20026;-79
2021/01/21 08:46:24;;;;;;;10.38;2.13;;;;;;;7.88;60.50;99051.53;5042127;22;20061;-81
2021/01/21 08:48:51;;;;;;;9.07;2.13;;;;;;;7.40;62.47;99050.66;5006839;28;20066;-81
2021/01/21 08:51:29;;;;;;;13.68;2.53;;;;;;;7.45;62.12;99039.94;5003711;28;20029;-82
2021/01/21 08:54:19;;;;;;;14.27;2.20;;;;;;;7.39;62.78;99056.84;5008712;28;20031;-78
2021/01/21 08:59:46;;;;;;;16.38;2.90;;;;;;;7.30;62.79;99046.63;5089699;27;20417;-80
2021/01/21 09:02:13;;;;;;;10.65;2.70;;;;;;;7.54;62.24;99049.28;5087051;28;20036;-79
2021/01/21 09:04:41;;;;;;;13.68;2.30;;;;;;;7.63;61.50;99050.72;5089608;28;20036;-85
2021/01/21 09:07:10;;;;;;;10.60;2.38;;;;;;;7.64;61.83;99055.97;5083219;28;20110;-82
2021/01/21 09:09:39;;;;;;;15.45;2.75;;;;;;;7.75;61.44;99063.44;5070652;28;20032;-83
2021/01/21 09:12:17;;;;;;;7.45;1.92;;;;;;;7.65;62.25;99070.88;5076149;28;20115;-84
2021/01/21 09:15:09;;;;;;;9.15;2.65;;;;;;;7.70;62.58;99055.75;5081011;28;20021;-82
2021/01/21 09:17:37;;;;;;;12.27;1.90;;;;;;;7.80;62.57;99079.13;5079669;28;20039;-84
2021/01/21 09:23:22;;;;;;;10.80;2.45;;;;;;;8.21;62.65;99101.31;5039451;28;20400;-84
2021/01/21 09:25:49;;;;;;;12.07;2.00;;;;;;;8.04;63.70;99101.94;5027239;28;20026;-80
2021/01/21 09:28:16;;;;;;;13.57;3.05;;;;;;;8.10;63.88;99085.88;4999035;28;20029;-83
2021/01/21 09:30:43;;;;;;;11.43;2.47;;;;;;;8.42;63.69;99081.13;5008061;28;20034;-82
2021/01/21 09:33:10;;;;;;;13.90;2.70;;;;;;;8.70;62.94;99090.63;5004984;28;20034;-82
2021/01/21 09:35:38;;;;;;;13.05;2.65;;;;;;;8.70;62.25;99093.25;5000854;28;20440;-81
2021/01/21 09:38:04;;;;;;;10.57;2.17;;;;;;;8.65;63.05;99089.94;5000063;28;20467;-81
2021/01/21 09:40:32;;;;;;;13.50;2.63;;;;;;;8.47;63.36;99085.41;4979418;28;20030;-81
2021/01/21 09:43:04;;;;;;;10.85;2.08;;;;;;;8.66;62.45;99096.06;4996920;28;20038;-81
2021/01/21 09:45:31;;;;;;;14.43;2.25;;;;;;;8.52;63.65;99080.78;5001999;28;20042;-80
2021/01/21 09:47:58;;;;;;;13.80;2.58;;;;;;;8.34;64.05;99085.00;5004188;28;20054;-81
2021/01/21 09:50:26;;;;;;;11.15;2.53;;;;;;;8.72;63.25;99080.88;5000553;28;20037;-82
2021/01/21 09:52:53;;;;;;;8.13;2.08;;;;;;;8.87;62.78;99071.44;5001391;28;20030;-82
2021/01/21 09:55:19;;;;;;;13.18;2.53;;;;;;;8.64;63.33;99085.59;5001749;28;20069;-82
2021/01/21 09:57:45;;;;;;;13.57;3.17;;;;;;;8.62;64.09;99074.22;5001539;28;20041;-82
2021/01/21 10:00:14;;;;;;;14.07;2.30;;;;;;;8.87;63.08;99065.28;4996067;28;20389;-81
2021/01/21 10:02:41;;;;;;;11.45;2.55;;;;;;;8.74;63.40;99078.16;5000268;28;20038;-82
2021/01/21 10:05:08;;;;;;;11.93;2.25;;;;;;;8.68;62.91;99086.31;5004739;28;20068;-83
2021/01/21 10:07:34;;;;;;;15.07;2.38;;;;;;;8.97;62.29;99086.91;4996841;28;20514;-84
2021/01/21 10:10:00;;;;;;;13.15;2.53;;;;;;;8.91;62.08;99080.09;5004850;28;20037;-81
2021/01/21 10:12:27;;;;;;;15.38;2.13;;;;;;;9.21;61.89;99085.88;5002179;28;20117;-81
2021/01/21 10:14:56;;;;;;;9.70;2.40;;;;;;;9.16;61.80;99085.22;5009850;28;20030;-81
2021/01/21 10:17:23;;;;;;;7.55;1.90;;;;;;;9.25;62.10;99083.13;5006563;28;20031;-79
2021/01/21 10:19:49;;;;;;;6.35;1.58;;;;;;;9.39;61.59;99092.16;4983348;28;20030;-80
2021/01/21 10:22:15;;;;;;;9.13;1.70;;;;;;;9.14;61.76;99091.50;5022546;28;20481;-80
2021/01/21 10:24:44;;;;;;;11.93;2.20;;;;;;;9.30;61.64;99100.47;5029672;28;20026;-83
2021/01/21 10:27:11;;;;;;;12.40;2.85;;;;;;;9.34;61.49;99106.50;5028025;28;20033;-81
2021/01/21 10:29:37;;;;;;;8.10;2.05;;;;;;;9.32;61.26;99124.19;5028637;28;20056;-83
2021/01/21 10:32:06;;;;;;;10.40;2.33;;;;;;;9.47;61.20;99115.63;5026819;28;20468;-82
2021/01/21 10:34:33;;;;;;;18.33;2.15;;;;;;;9.71;61.03;99147.22;5013305;28;20029;-82
2021/01/21 10:37:05;;;;;;;11.27;1.83;;;;;;;9.86;60.01;99113.94;5014978;28;20093;-83
2021/01/21 10:39:31;;;;;;;9.85;2.00;;;;;;;9.61;60.74;99104.44;5015878;28;20065;-81
2021/01/21 10:41:57;;;;;;;8.70;1.48;;;;;;;9.85;60.02;99091.03;5014129;28;20041;-83
2021/01/21 10:44:23;;;;;;;16.65;2.28;;;;;;;10.12;59.02;99098.63;5014887;28;20034;-82
2021/01/21 10:46:49;;;;;;;8.80;2.00;;;;;;;9.81;59.65;99100.06;5014758;28;20125;-83
2021/01/21 10:49:17;;;;;;;11.68;1.92;;;;;;;9.75;59.52;99095.03;5011821;28;20034;-84
2021/01/21 10:51:45;;;;;;;8.38;1.70;;;;;;;9.44;59.96;99112.25;5014076;28;20038;-85
2021/01/21 10:54:11;;;;;;;11.35;1.92;;;;;;;9.59;59.80;99102.78;5015322;28;20512;-84
2021/01/21 10:56:37;;;;;;;10.23;2.20;;;;;;;9.55;60.08;99100.25;5005977;28;20038;-84
2021/01/21 10:59:05;;;;;;;6.65;1.58;;;;;;;9.74;59.39;99117.97;5013893;28;20018;-82
2021/01/21 11:01:32;;;;;;;8.90;1.60;;;;;;;9.65;59.71;99102.53;5006933;28;20042;-83
2021/01/21 11:03:58;;;;;;;11.13;1.58;;;;;;;9.56;59.78;99111.72;5013508;28;20034;-87
2021/01/21 11:06:25;;;;;;;5.55;1.40;;;;;;;9.44;59.57;99112.25;5015852;28;21484;-83
2021/01/21 11:08:51;;;;;;;7.70;1.50;;;;;;;9.56;59.28;99109.06;5010699;28;20112;-80
2021/01/21 11:11:18;;;;;;;8.80;2.03;;;;;;;9.47;60.29;99112.09;5014619;28;20076;-85
2021/01/21 11:13:45;;;;;;;9.30;2.00;;;;;;;9.35;60.42;99098.50;5010899;28;20530;-85
2021/01/21 11:16:11;;;;;;;7.70;1.40;;;;;;;9.54;60.00;99110.91;5011996;28;20034;-81
2021/01/21 11:18:37;;;;;;;6.20;1.30;;;;;;;9.35;59.86;99103.78;5008176;28;20112;-86
2021/01/21 11:21:04;;;;;;;9.30;2.08;;;;;;;9.49;59.86;99089.94;5008096;28;20034;-90
2021/01/21 11:23:30;;;;;;;11.63;1.85;;;;;;;9.52;60.28;99092.47;5018948;28;20118;-90
2021/01/21 11:25:56;;;;;;;8.13;2.15;;;;;;;9.80;59.49;99082.47;5022641;28;20033;-90
2021/01/21 11:28:23;;;;;;;9.10;2.08;;;;;;;9.30;60.81;99116.34;5018200;28;20026;-92
2021/01/21 11:30:50;;;;;;;9.43;2.25;;;;;;;9.78;59.64;99094.88;5015288;28;20236;-88
2021/01/21 11:33:17;;;;;;;7.40;2.05;;;;;;;9.76;59.86;99102.03;5023673;28;20034;-90
2021/01/21 11:35:44;;;;;;;12.93;1.98;;;;;;;9.68;59.86;99103.25;5024008;28;20121;-90
2021/01/21 11:38:11;;;;;;;14.40;1.88;;;;;;;9.80;59.38;99090.41;5009913;28;20030;-89
2021/01/21 11:40:37;;;;;;;12.18;1.95;;;;;;;9.70;60.12;99101.38;5017433;28;20025;-91
2021/01/21 11:43:03;;;;;;;12.60;2.38;;;;;;;10.20;58.73;99102.66;5014872;28;20508;-82
2021/01/21 11:45:30;;;;;;;14.80;2.20;;;;;;;10.29;58.31;99097.84;5011424;28;20030;-81
2021/01/21 11:47:57;;;;;;;11.40;2.70;;;;;;;10.29;58.21;99087.28;5013213;28;20116;-81
2021/01/21 11:50:24;;;;;;;9.30;2.38;;;;;;;10.58;57.94;99088.56;5014094;28;20030;-81
2021/01/21 11:52:50;;;;;;;10.35;2.05;;;;;;;10.58;58.21;99075.34;5015550;28;20037;-81
2021/01/21 11:55:16;;;;;;;10.38;2.00;;;;;;;10.62;57.67;99103.38;5014301;28;20069;-80
2021/01/21 11:57:43;;;;;;;7.93;1.58;;;;;;;10.45;57.66;99076.84;5015161;28;20038;-82
2021/01/21 12:00:13;;;;;;;10.73;2.13;;;;;;;10.33;58.28;99080.88;5014549;28;20057;-81
2021/01/21 12:02:40;;;;;;;6.28;1.70;;;;;;;10.49;57.52;99062.53;5014318;28;20116;-82
2021/01/21 12:05:08;;;;;;;8.27;1.90;;;;;;;10.39;57.44;99079.78;5014198;28;20026;-81
2021/01/21 12:07:39;;;;;;;7.07;1.58;;;;;;;10.43;57.28;99079.59;5014220;28;20029;-80
2021/01/21 12:10:06;;;;;;;9.35;2.00;;;;;;;10.59;56.87;99077.06;5013762;28;20060;-79
2021/01/21 12:12:34;;;;;;;6.22;1.48;;;;;;;10.17;57.50;99062.25;5012303;28;20034;-77
2021/01/21 12:15:00;;;;;;;7.53;2.00;;;;;;;10.15;58.00;99072.88;5013570;28;20061;-79
2021/01/21 12:17:27;;;;;;;14.40;2.08;;;;;;;10.49;57.12;99094.28;5010452;28;20121;-80
2021/01/21 12:19:53;;;;;;;5.47;1.40;;;;;;;10.61;56.85;99080.47;5014209;28;20034;-78
2021/01/21 12:22:19;;;;;;;12.15;2.40;;;;;;;10.65;57.13;99076.75;5014576;28;20037;-80
2021/01/21 12:24:45;;;;;;;9.15;1.83;;;;;;;10.43;57.59;99091.94;5014493;28;20416;-79
2021/01/21 12:27:12;;;;;;;44.70;19.20;;;;;;;10.66;57.17;99069.66;5014566;28;20377;-79